createdAt,value
2019-04-01T00:00:32.717Z,33.60
2019-04-01T00:02:36.459Z,41.83
2019-04-01T00:04:41.309Z,41.40
2019-04-01T00:06:45.099Z,37.47
2019-04-01T00:08:51.979Z,31.80
2019-04-01T00:10:56.783Z,37.77
2019-04-01T00:13:00.598Z,36.03
2019-04-01T00:15:04.582Z,36.73
2019-04-01T00:17:08.418Z,32.63
2019-04-01T00:19:14.260Z,33.70
2019-04-01T00:21:19.091Z,33.63
2019-04-01T00:23:22.886Z,35.67
2019-04-01T00:25:26.699Z,32.13
2019-04-01T00:27:30.496Z,34.83
2019-04-01T00:29:34.225Z,37.43
2019-04-01T00:31:38.000Z,36.70
2019-04-01T00:33:41.810Z,39.90
2019-04-01T00:35:45.602Z,35.87
2019-04-01T00:37:51.361Z,31.93
2019-04-01T00:39:57.117Z,33.30
2019-04-01T00:42:10.039Z,36.70
2019-04-01T00:44:14.867Z,29.77
2019-04-01T00:46:18.646Z,32.40
2019-04-01T00:48:23.484Z,35.20
2019-04-01T00:50:27.375Z,33.37
2019-04-01T00:52:31.253Z,34.27
2019-04-01T00:54:38.108Z,30.87
2019-04-01T00:56:41.860Z,31.70
2019-04-01T00:58:45.661Z,31.87
2019-04-01T01:00:50.490Z,31.27
2019-04-01T01:02:56.267Z,33.27
2019-04-01T01:05:00.096Z,42.57
2019-04-01T01:07:04.140Z,29.93
2019-04-01T01:09:09.052Z,31.87
2019-04-01T01:11:12.970Z,37.47
2019-04-01T01:13:19.869Z,35.37
2019-04-01T01:15:23.678Z,34.63
2019-04-01T01:17:27.470Z,32.57
2019-04-01T01:19:31.477Z,35.87
2019-04-01T01:21:36.676Z,31.20
2019-04-01T01:23:40.520Z,37.97
2019-04-01T01:25:52.109Z,30.70
2019-04-01T01:28:01.134Z,34.50
2019-04-01T01:30:08.783Z,32.40
2019-04-01T01:32:12.626Z,39.43
2019-04-01T01:34:22.579Z,32.43
2019-04-01T01:36:26.385Z,32.90
2019-04-01T01:38:32.222Z,38.10
2019-04-01T01:40:36.084Z,36.60
2019-04-01T01:42:40.859Z,33.27
2019-04-01T01:44:46.882Z,30.97
2019-04-01T01:46:51.634Z,33.07
2019-04-01T01:48:55.506Z,32.67
2019-04-01T01:50:59.362Z,32.03
2019-04-01T01:53:03.146Z,29.97
2019-04-01T01:55:07.030Z,31.43
2019-04-01T01:57:16.703Z,36.90
2019-04-01T01:59:21.595Z,31.93
2019-04-01T02:01:27.564Z,32.83
2019-04-01T02:03:31.366Z,33.50
2019-04-01T02:05:42.135Z,33.57
2019-04-01T02:07:49.022Z,28.73
2019-04-01T02:09:56.923Z,28.53
2019-04-01T02:12:02.144Z,32.93
2019-04-01T02:14:06.030Z,30.37
2019-04-01T02:16:09.867Z,32.97
2019-04-01T02:18:13.946Z,31.30
2019-04-01T02:20:17.795Z,32.23
2019-04-01T02:22:21.583Z,32.40
2019-04-01T02:24:27.332Z,30.23
2019-04-01T02:26:32.164Z,30.67
2019-04-01T02:28:36.993Z,28.90
2019-04-01T02:30:44.005Z,36.60
2019-04-01T02:32:47.765Z,29.37
2019-04-01T02:34:52.604Z,34.60
2019-04-01T02:36:57.414Z,34.83
2019-04-01T02:39:04.773Z,31.67
2019-04-01T02:41:11.691Z,33.37
2019-04-01T02:43:15.483Z,32.80
2019-04-01T02:45:21.330Z,34.70
2019-04-01T02:47:25.144Z,29.33
2019-04-01T02:49:29.758Z,30.50
2019-04-01T02:51:33.589Z,30.17
2019-04-01T02:53:37.383Z,30.73
2019-04-01T02:55:45.368Z,31.97
2019-04-01T02:57:49.162Z,39.73
2019-04-01T02:59:52.968Z,30.60
2019-04-01T03:01:56.779Z,24.77
2019-04-01T03:04:02.555Z,34.57
2019-04-01T03:06:06.339Z,32.00
2019-04-01T03:08:11.172Z,31.97
2019-04-01T03:10:16.065Z,37.40
2019-04-01T03:12:19.904Z,39.10
2019-04-01T03:14:25.654Z,34.90
2019-04-01T03:16:29.435Z,30.37
2019-04-01T03:18:33.272Z,25.93
2019-04-01T03:20:38.062Z,34.17
2019-04-01T03:22:41.935Z,32.87
2019-04-01T03:24:45.777Z,28.93
2019-04-01T03:26:50.618Z,32.30
2019-04-01T03:28:55.454Z,30.30
2019-04-01T03:31:01.265Z,27.57
2019-04-01T03:33:11.017Z,30.93
2019-04-01T03:35:15.288Z,33.37
2019-04-01T03:37:19.044Z,32.30
2019-04-01T03:39:22.913Z,28.20
2019-04-01T03:41:27.676Z,31.47
2019-04-01T03:43:32.501Z,27.70
2019-04-01T03:45:38.253Z,31.83
2019-04-01T03:47:42.040Z,29.93
2019-04-01T03:49:45.864Z,26.03
2019-04-01T03:51:49.656Z,32.13
2019-04-01T03:53:53.467Z,29.43
2019-04-01T03:56:00.424Z,35.37
2019-04-01T03:58:04.306Z,32.03
2019-04-01T04:00:08.470Z,26.80
2019-04-01T04:02:12.399Z,28.70
2019-04-01T04:04:16.214Z,31.00
2019-04-01T04:06:20.056Z,34.33
2019-04-01T04:08:23.858Z,30.73
2019-04-01T04:10:27.674Z,31.00
2019-04-01T04:12:31.486Z,31.40
2019-04-01T04:14:37.207Z,32.37
2019-04-01T04:16:41.028Z,30.43
2019-04-01T04:18:44.827Z,33.13
2019-04-01T04:20:49.739Z,26.27
2019-04-01T04:22:53.551Z,28.47
2019-04-01T04:24:59.298Z,28.57
2019-04-01T04:27:03.122Z,31.33
2019-04-01T04:29:12.957Z,26.70
2019-04-01T04:31:17.802Z,29.97
2019-04-01T04:33:21.549Z,30.33
2019-04-01T04:35:27.328Z,28.10
2019-04-01T04:37:31.144Z,31.23
2019-04-01T04:39:34.942Z,27.37
2019-04-01T04:41:38.741Z,31.57
2019-04-01T04:43:42.539Z,35.53
2019-04-01T04:45:47.363Z,32.30
2019-04-01T04:47:51.183Z,29.03
2019-04-01T04:49:54.969Z,34.70
2019-04-01T04:52:00.726Z,35.37
2019-04-01T04:54:04.704Z,30.57
2019-04-01T04:56:15.290Z,25.73
2019-04-01T04:58:21.034Z,30.17
2019-04-01T05:00:24.839Z,28.97
2019-04-01T05:02:28.648Z,36.57
2019-04-01T05:04:32.436Z,33.40
2019-04-01T05:06:36.330Z,30.20
2019-04-01T05:08:41.077Z,29.37
2019-04-01T05:10:44.886Z,40.37
2019-04-01T05:12:48.694Z,36.73
2019-04-01T05:14:53.512Z,28.37
2019-04-01T05:16:59.263Z,32.43
2019-04-01T05:19:04.154Z,29.40
2019-04-01T05:21:08.214Z,33.63
2019-04-01T05:23:12.380Z,29.37
2019-04-01T05:25:18.149Z,30.07
2019-04-01T05:27:25.656Z,35.97
2019-04-01T05:29:31.282Z,39.97
2019-04-01T05:31:35.769Z,34.33
2019-04-01T05:33:54.799Z,40.00
2019-04-01T05:35:48.817Z,31.70
2019-04-01T05:37:52.810Z,32.87
2019-04-01T05:39:57.881Z,29.40
2019-04-01T05:42:03.145Z,33.90
2019-04-01T05:44:07.189Z,33.00
2019-04-01T05:46:13.108Z,33.03
2019-04-01T05:48:17.807Z,30.57
2019-04-01T05:50:21.659Z,31.17
2019-04-01T05:52:26.434Z,31.63
2019-04-01T05:54:31.322Z,32.80
2019-04-01T05:56:35.198Z,43.93
2019-04-01T05:58:39.025Z,37.37
2019-04-01T06:00:56.169Z,35.77
2019-04-01T06:02:59.973Z,28.33
2019-04-01T06:05:06.527Z,34.37
2019-04-01T06:07:10.466Z,29.07
2019-04-01T06:09:14.350Z,29.67
2019-04-01T06:11:18.246Z,35.10
2019-04-01T06:13:22.253Z,33.70
2019-04-01T06:15:27.172Z,26.13
2019-04-01T06:17:31.186Z,30.90
2019-04-01T06:19:35.364Z,30.67
2019-04-01T06:21:39.203Z,27.53
2019-04-01T06:23:43.050Z,35.77
2019-04-01T06:25:46.850Z,25.40
2019-04-01T06:27:51.861Z,32.97
2019-04-01T06:29:59.159Z,29.90
2019-04-01T06:32:01.862Z,29.53
2019-04-01T06:34:05.923Z,36.83
2019-04-01T06:36:09.819Z,24.47
2019-04-01T06:38:13.898Z,23.53
2019-04-01T06:40:17.992Z,28.00
2019-04-01T06:42:22.795Z,23.80
2019-04-01T06:44:26.614Z,27.57
2019-04-01T06:46:30.465Z,22.60
2019-04-01T06:48:34.311Z,28.50
2019-04-01T06:50:39.465Z,21.47
2019-04-01T06:52:43.323Z,19.30
2019-04-01T06:54:49.172Z,22.13
2019-04-01T06:56:53.070Z,19.03
2019-04-01T06:58:56.989Z,16.43
2019-04-01T07:01:02.035Z,19.43
2019-04-01T07:03:05.917Z,21.07
2019-04-01T07:05:12.550Z,14.87
2019-04-01T07:07:19.091Z,16.77
2019-04-01T07:09:21.473Z,17.00
2019-04-01T07:11:25.386Z,12.23
2019-04-01T07:13:29.223Z,15.57
2019-04-01T07:15:34.045Z,17.17
2019-04-01T07:17:37.957Z,17.13
2019-04-01T07:19:41.861Z,12.70
2019-04-01T07:21:45.770Z,13.70
2019-04-01T07:23:49.692Z,12.93
2019-04-01T07:25:53.585Z,13.53
2019-04-01T07:27:57.488Z,12.50
2019-04-01T07:30:02.380Z,14.93
2019-04-01T07:32:06.223Z,14.25
2019-04-01T07:34:10.107Z,13.22
2019-04-01T07:36:13.934Z,10.88
2019-04-01T07:38:19.806Z,14.78
2019-04-01T07:40:23.614Z,13.53
2019-04-01T07:42:27.614Z,11.00
2019-04-01T07:44:32.533Z,12.07
2019-04-01T07:46:37.283Z,9.08
2019-04-01T07:48:41.239Z,13.45
2019-04-01T07:50:45.260Z,10.95
2019-04-01T07:52:50.175Z,11.03
2019-04-01T07:54:55.017Z,11.60
2019-04-01T07:56:58.936Z,12.45
2019-04-01T07:59:02.837Z,13.20
2019-04-01T08:01:06.734Z,10.78
2019-04-01T08:03:10.647Z,12.60
2019-04-01T08:05:16.763Z,12.45
2019-04-01T08:07:20.579Z,10.65
2019-04-01T08:09:25.426Z,11.78
2019-04-01T08:11:29.351Z,12.55
2019-04-01T08:13:33.180Z,12.85
2019-04-01T08:15:37.018Z,11.15
2019-04-01T08:17:40.760Z,10.98
2019-04-01T08:19:44.571Z,11.08
2019-04-01T08:21:52.127Z,10.45
2019-04-01T08:23:54.175Z,11.88
2019-04-01T08:25:57.998Z,10.18
2019-04-01T08:28:01.911Z,10.32
2019-04-01T08:30:08.690Z,12.43
2019-04-01T08:32:14.147Z,9.68
2019-04-01T08:34:18.230Z,13.50
2019-04-01T08:36:23.136Z,12.15
2019-04-01T08:38:28.281Z,13.20
2019-04-01T08:40:33.020Z,9.40
2019-04-01T08:42:36.982Z,9.45
2019-04-01T08:44:40.994Z,13.05
2019-04-01T08:46:44.918Z,9.88
2019-04-01T08:48:49.427Z,10.45
2019-04-01T08:50:53.753Z,13.10
2019-04-01T08:52:58.516Z,10.18
2019-04-01T08:55:02.423Z,15.98
2019-04-01T08:57:07.398Z,12.45
2019-04-01T08:59:11.163Z,9.60
2019-04-01T09:01:15.262Z,10.80
2019-04-01T09:03:19.076Z,13.30
2019-04-01T09:05:22.889Z,12.90
2019-04-01T09:07:26.716Z,14.30
2019-04-01T09:09:31.948Z,10.65
2019-04-01T09:11:38.392Z,11.57
2019-04-01T09:13:41.942Z,11.85
2019-04-01T09:15:45.860Z,16.17
2019-04-01T09:17:49.765Z,10.18
2019-04-01T09:19:53.598Z,12.65
2019-04-01T09:21:57.426Z,15.05
2019-04-01T09:24:01.299Z,15.25
2019-04-01T09:26:05.347Z,12.05
2019-04-01T09:28:09.187Z,12.63
2019-04-01T09:30:18.532Z,16.32
2019-04-01T09:32:20.971Z,13.25
2019-04-01T09:34:24.726Z,12.90
2019-04-01T09:36:28.441Z,12.37
2019-04-01T09:38:32.250Z,14.00
2019-04-01T09:40:36.121Z,16.85
2019-04-01T09:42:39.941Z,13.38
2019-04-01T09:44:43.739Z,13.40
2019-04-01T09:46:49.074Z,11.22
2019-04-01T09:48:52.992Z,14.28
2019-04-01T09:50:56.742Z,15.03
2019-04-01T09:53:00.502Z,16.75
2019-04-01T09:55:06.272Z,12.82
2019-04-01T09:57:17.392Z,15.13
2019-04-01T09:59:15.670Z,13.55
2019-04-01T10:01:19.394Z,14.75
2019-04-01T10:03:23.184Z,12.55
2019-04-01T10:05:26.932Z,13.53
2019-04-01T10:07:30.791Z,16.12
2019-04-01T10:09:34.581Z,14.60
2019-04-01T10:11:38.303Z,14.85
2019-04-01T10:13:42.019Z,14.78
2019-04-01T10:15:45.757Z,13.22
2019-04-01T10:17:49.476Z,12.25
2019-04-01T10:19:53.218Z,14.10
2019-04-01T10:21:56.950Z,16.82
2019-04-01T10:24:00.755Z,14.05
2019-04-01T10:26:04.629Z,15.93
2019-04-01T10:28:08.362Z,18.62
2019-04-01T10:30:13.057Z,15.15
2019-04-01T10:32:16.779Z,18.45
2019-04-01T10:34:20.521Z,14.38
2019-04-01T10:36:24.258Z,11.63
2019-04-01T10:38:27.993Z,16.85
2019-04-01T10:40:31.847Z,18.32
2019-04-01T10:42:35.700Z,14.00
2019-04-01T10:44:39.442Z,16.42
2019-04-01T10:46:43.193Z,14.87
2019-04-01T10:48:46.892Z,16.73
2019-04-01T10:50:50.648Z,17.30
2019-04-01T10:52:54.424Z,15.55
2019-04-01T10:54:58.121Z,15.68
2019-04-01T10:57:02.205Z,18.17
2019-04-01T10:59:06.012Z,17.98
2019-04-01T11:01:09.886Z,20.55
2019-04-01T11:03:13.710Z,15.80
2019-04-01T11:05:17.488Z,14.30
2019-04-01T11:07:21.246Z,13.65
2019-04-01T11:09:37.768Z,13.70
2019-04-01T11:11:30.506Z,15.50
2019-04-01T11:13:34.357Z,17.12
2019-04-01T11:15:38.066Z,15.65
2019-04-01T11:17:41.826Z,15.13
2019-04-01T11:19:45.649Z,15.28
2019-04-01T11:21:49.363Z,16.95
2019-04-01T11:23:53.161Z,16.37
2019-04-01T11:25:56.901Z,14.95
2019-04-01T11:28:00.653Z,16.77
2019-04-01T11:30:05.309Z,21.45
2019-04-01T11:32:09.512Z,14.40
2019-04-01T11:34:14.697Z,15.35
2019-04-01T11:36:18.520Z,14.68
2019-04-01T11:38:22.335Z,21.12
2019-04-01T11:40:26.176Z,15.23
2019-04-01T11:42:29.853Z,14.35
2019-04-01T11:44:33.641Z,16.65
2019-04-01T11:46:37.320Z,13.62
2019-04-01T11:48:41.205Z,14.80
2019-04-01T11:50:47.723Z,16.82
2019-04-01T11:52:50.444Z,16.15
2019-04-01T11:54:54.245Z,17.27
2019-04-01T11:56:57.981Z,17.02
2019-04-01T11:59:01.724Z,16.57
2019-04-01T12:01:05.515Z,17.10
2019-04-01T12:03:09.403Z,15.53
2019-04-01T12:05:13.476Z,16.82
2019-04-01T12:07:17.206Z,14.63
2019-04-01T12:09:21.082Z,16.80
2019-04-01T12:11:24.822Z,14.33
2019-04-01T12:13:29.021Z,13.95
2019-04-01T12:15:33.103Z,12.82
2019-04-01T12:17:36.920Z,16.30
2019-04-01T12:19:40.688Z,15.32
2019-04-01T12:21:44.508Z,17.27
2019-04-01T12:23:48.240Z,14.05
2019-04-01T12:25:51.994Z,13.68
2019-04-01T12:27:55.746Z,15.88
2019-04-01T12:29:59.496Z,13.43
2019-04-01T12:32:03.314Z,15.48
2019-04-01T12:34:07.043Z,16.10
2019-04-01T12:36:11.824Z,16.07
2019-04-01T12:38:16.492Z,13.32
2019-04-01T12:40:20.381Z,11.88
2019-04-01T12:42:24.183Z,13.20
2019-04-01T12:44:27.908Z,12.80
2019-04-01T12:46:31.644Z,13.13
2019-04-01T12:48:35.371Z,15.43
2019-04-01T12:50:40.145Z,13.43
2019-04-01T12:52:43.865Z,13.72
2019-04-01T12:54:47.595Z,12.95
2019-04-01T12:56:51.359Z,14.23
2019-04-01T12:58:55.097Z,12.37
2019-04-01T13:01:01.062Z,14.70
2019-04-01T13:03:04.408Z,13.65
2019-04-01T13:05:08.379Z,11.45
2019-04-01T13:07:12.121Z,12.37
2019-04-01T13:09:15.906Z,15.08
2019-04-01T13:11:19.852Z,18.48
2019-04-01T13:13:23.518Z,12.82
2019-04-01T13:15:27.323Z,12.80
2019-04-01T13:17:31.116Z,13.05
2019-04-01T13:19:34.829Z,14.13
2019-04-01T13:21:39.924Z,14.15
2019-04-01T13:23:43.760Z,16.45
2019-04-01T13:25:47.486Z,13.25
2019-04-01T13:27:51.319Z,13.25
2019-04-01T13:29:55.057Z,15.63
2019-04-01T13:32:00.564Z,15.03
2019-04-01T13:34:04.370Z,12.60
2019-04-01T13:36:08.136Z,12.15
2019-04-01T13:38:11.907Z,15.93
2019-04-01T13:40:19.303Z,12.68
2019-04-01T13:42:24.698Z,12.30
2019-04-01T13:44:36.837Z,14.35
2019-04-01T13:46:32.130Z,14.98
2019-04-01T13:48:35.857Z,13.80
2019-04-01T13:50:39.572Z,14.05
2019-04-01T13:52:43.320Z,13.75
2019-04-01T13:54:47.057Z,12.65
2019-04-01T13:56:50.803Z,14.33
2019-04-01T13:58:54.633Z,13.90
2019-04-01T14:00:58.344Z,13.22
2019-04-01T14:03:02.075Z,11.95
2019-04-01T14:05:06.784Z,14.20
2019-04-01T14:07:10.533Z,11.63
2019-04-01T14:09:14.323Z,16.73
2019-04-01T14:11:18.062Z,12.63
2019-04-01T14:13:21.787Z,13.85
2019-04-01T14:15:25.530Z,12.03
2019-04-01T14:17:29.279Z,14.25
2019-04-01T14:19:33.015Z,15.28
2019-04-01T14:21:36.757Z,15.90
2019-04-01T14:23:40.481Z,12.88
2019-04-01T14:25:44.199Z,16.23
2019-04-01T14:27:48.006Z,18.85
2019-04-01T14:29:51.750Z,18.55
2019-04-01T14:31:55.506Z,17.05
2019-04-01T14:33:59.556Z,17.98
2019-04-01T14:36:04.674Z,15.60
2019-04-01T14:38:08.628Z,16.17
2019-04-01T14:40:12.518Z,16.97
2019-04-01T14:42:16.258Z,17.42
2019-04-01T14:44:19.987Z,15.30
2019-04-01T14:46:23.722Z,14.80
2019-04-01T14:48:27.536Z,16.02
2019-04-01T14:50:31.271Z,16.00
2019-04-01T14:52:35.145Z,16.48
2019-04-01T14:54:38.806Z,15.15
2019-04-01T14:56:42.623Z,19.23
2019-04-01T14:58:46.353Z,15.20
2019-04-01T15:00:50.159Z,19.15
2019-04-01T15:02:53.983Z,19.40
2019-04-01T15:04:57.792Z,15.65
2019-04-01T15:07:01.535Z,17.75
2019-04-01T15:09:08.371Z,17.32
2019-04-01T15:11:12.692Z,18.60
2019-04-01T15:13:16.535Z,20.62
2019-04-01T15:15:20.407Z,15.70
2019-04-01T15:17:24.140Z,16.50
2019-04-01T15:19:27.927Z,14.93
2019-04-01T15:21:31.668Z,15.13
2019-04-01T15:23:35.467Z,18.92
2019-04-01T15:25:39.226Z,17.87
2019-04-01T15:27:42.985Z,18.25
2019-04-01T15:29:46.736Z,18.05
2019-04-01T15:31:50.464Z,18.45
2019-04-01T15:33:54.196Z,27.10
2019-04-01T15:35:57.961Z,17.55
2019-04-01T15:38:01.703Z,15.45
2019-04-01T15:40:07.326Z,18.90
2019-04-01T15:42:11.035Z,18.12
2019-04-01T15:44:14.910Z,18.65
2019-04-01T15:46:18.635Z,17.65
2019-04-01T15:48:22.431Z,16.65
2019-04-01T15:50:28.669Z,13.95
2019-04-01T15:52:31.699Z,15.53
2019-04-01T15:54:35.426Z,18.00
2019-04-01T15:56:41.849Z,15.15
2019-04-01T15:58:44.699Z,15.70
2019-04-01T16:00:48.514Z,15.35
2019-04-01T16:02:52.332Z,17.65
2019-04-01T16:04:56.064Z,16.37
2019-04-01T16:07:00.364Z,17.40
2019-04-01T16:09:06.341Z,16.65
2019-04-01T16:11:10.091Z,17.12
2019-04-01T16:13:14.320Z,14.60
2019-04-01T16:15:18.335Z,14.18
2019-04-01T16:17:22.173Z,16.10
2019-04-01T16:19:25.977Z,15.13
2019-04-01T16:21:31.412Z,12.18
2019-04-01T16:23:35.280Z,16.73
2019-04-01T16:25:39.067Z,14.40
2019-04-01T16:27:43.229Z,17.37
2019-04-01T16:29:47.009Z,15.58
2019-04-01T16:31:50.735Z,16.48
2019-04-01T16:33:54.477Z,16.85
2019-04-01T16:35:58.320Z,16.15
2019-04-01T16:38:02.062Z,16.95
2019-04-01T16:40:06.556Z,17.32
2019-04-01T16:42:10.301Z,16.52
2019-04-01T16:44:15.010Z,17.90
2019-04-01T16:46:18.866Z,19.15
2019-04-01T16:48:22.613Z,17.48
2019-04-01T16:50:28.574Z,15.98
2019-04-01T16:52:31.985Z,21.07
2019-04-01T16:54:37.547Z,18.07
2019-04-01T16:56:41.432Z,15.63
2019-04-01T16:58:45.244Z,17.27
2019-04-01T17:00:48.996Z,17.37
2019-04-01T17:02:52.739Z,17.03
2019-04-01T17:04:56.596Z,13.65
2019-04-01T17:07:00.412Z,16.25
2019-04-01T17:09:06.050Z,17.13
2019-04-01T17:11:09.913Z,17.55
2019-04-01T17:13:13.767Z,15.87
2019-04-01T17:15:17.577Z,20.07
2019-04-01T17:17:21.399Z,18.93
2019-04-01T17:19:27.687Z,20.30
2019-04-01T17:21:30.605Z,15.58
2019-04-01T17:23:34.418Z,20.77
2019-04-01T17:25:38.154Z,13.93
2019-04-01T17:27:42.033Z,14.20
2019-04-01T17:29:47.199Z,15.47
2019-04-01T17:31:50.933Z,16.30
2019-04-01T17:33:54.721Z,17.90
2019-04-01T17:35:58.452Z,19.83
2019-04-01T17:38:02.200Z,14.40
2019-04-01T17:40:08.470Z,21.23
2019-04-01T17:42:12.286Z,15.47
2019-04-01T17:44:16.099Z,19.20
2019-04-01T17:46:19.909Z,15.60
2019-04-01T17:48:23.738Z,16.10
2019-04-01T17:50:28.947Z,14.50
2019-04-01T17:52:32.833Z,15.77
2019-04-01T17:54:39.889Z,14.17
2019-04-01T17:56:42.012Z,22.70
2019-04-01T17:58:45.813Z,15.80
2019-04-01T18:00:56.118Z,15.33
2019-04-01T18:02:59.837Z,17.23
2019-04-01T18:05:03.646Z,17.07
2019-04-01T18:07:07.775Z,18.03
2019-04-01T18:09:11.611Z,36.93
2019-04-01T18:11:17.349Z,34.27
2019-04-01T18:13:22.072Z,17.00
2019-04-01T18:15:25.945Z,16.90
2019-04-01T18:17:29.668Z,15.83
2019-04-01T18:19:33.397Z,17.00
2019-04-01T18:21:38.253Z,15.90
2019-04-01T18:23:42.113Z,17.17
2019-04-01T18:25:45.924Z,22.30
2019-04-01T18:27:49.660Z,19.60
2019-04-01T18:29:53.403Z,17.77
2019-04-01T18:31:58.986Z,24.33
2019-04-01T18:34:02.587Z,30.43
2019-04-01T18:36:06.423Z,39.30
2019-04-01T18:38:10.231Z,30.70
2019-04-01T18:40:14.214Z,43.60
2019-04-01T18:42:17.974Z,19.97
2019-04-01T18:44:21.799Z,23.73
2019-04-01T18:46:25.527Z,17.30
2019-04-01T18:48:29.272Z,20.33
2019-04-01T18:50:33.020Z,15.10
2019-04-01T18:52:38.120Z,15.97
2019-04-01T18:54:42.233Z,17.43
2019-04-01T18:56:47.671Z,20.43
2019-04-01T18:58:51.415Z,18.33
2019-04-01T19:00:55.148Z,17.63
2019-04-01T19:02:58.960Z,18.87
2019-04-01T19:05:02.768Z,19.23
2019-04-01T19:07:06.567Z,16.23
2019-04-01T19:09:11.745Z,14.40
2019-04-01T19:11:16.007Z,19.07
2019-04-01T19:13:19.857Z,18.00
2019-04-01T19:15:24.536Z,16.60
2019-04-01T19:17:28.923Z,28.10
2019-04-01T19:19:32.656Z,16.23
2019-04-01T19:21:37.163Z,21.53
2019-04-01T19:23:41.171Z,22.73
2019-04-01T19:25:44.899Z,27.60
2019-04-01T19:27:49.221Z,29.60
2019-04-01T19:29:53.754Z,25.80
2019-04-01T19:31:57.499Z,27.10
2019-04-01T19:34:01.230Z,20.50
2019-04-01T19:36:05.115Z,24.30
2019-04-01T19:38:08.928Z,16.70
2019-04-01T19:40:13.299Z,22.53
2019-04-01T19:42:17.929Z,21.03
2019-04-01T19:44:21.941Z,21.17
2019-04-01T19:46:25.688Z,20.07
2019-04-01T19:48:29.489Z,15.50
2019-04-01T19:50:33.465Z,24.00
2019-04-01T19:52:37.296Z,20.20
2019-04-01T19:54:41.099Z,17.10
2019-04-01T19:56:44.817Z,18.93
2019-04-01T19:58:48.544Z,19.90
2019-04-01T20:00:52.363Z,20.90
2019-04-01T20:02:56.575Z,24.80
2019-04-01T20:05:00.496Z,23.00
2019-04-01T20:07:04.380Z,19.17
2019-04-01T20:09:08.790Z,23.90
2019-04-01T20:11:12.532Z,22.13
2019-04-01T20:13:16.249Z,20.13
2019-04-01T20:15:20.547Z,21.93
2019-04-01T20:17:24.363Z,20.47
2019-04-01T20:19:28.099Z,22.07
2019-04-01T20:21:31.821Z,17.83
2019-04-01T20:23:35.580Z,19.27
2019-04-01T20:25:39.347Z,19.30
2019-04-01T20:27:44.147Z,17.90
2019-04-01T20:29:47.980Z,16.17
2019-04-01T20:31:51.871Z,15.40
2019-04-01T20:33:55.590Z,16.67
2019-04-01T20:35:59.360Z,17.00
2019-04-01T20:38:03.116Z,17.53
2019-04-01T20:40:08.825Z,17.37
2019-04-01T20:42:12.628Z,21.20
2019-04-01T20:44:16.363Z,19.03
2019-04-01T20:46:20.129Z,19.50
2019-04-01T20:48:23.879Z,18.07
2019-04-01T20:50:28.181Z,17.93
2019-04-01T20:52:32.166Z,19.07
2019-04-01T20:54:35.897Z,17.00
2019-04-01T20:56:39.793Z,17.00
2019-04-01T20:58:43.530Z,16.33
2019-04-01T21:00:47.334Z,17.67
2019-04-01T21:02:51.080Z,22.93
2019-04-01T21:04:55.136Z,16.30
2019-04-01T21:06:59.673Z,21.63
2019-04-01T21:09:06.589Z,20.80
2019-04-01T21:11:11.165Z,18.27
2019-04-01T21:13:16.039Z,15.60
2019-04-01T21:15:19.843Z,15.57
2019-04-01T21:17:23.991Z,17.70
2019-04-01T21:19:28.094Z,15.67
2019-04-01T21:21:31.829Z,18.33
2019-04-01T21:23:36.085Z,15.97
2019-04-01T21:25:40.082Z,16.40
2019-04-01T21:27:43.816Z,13.37
2019-04-01T21:29:47.560Z,14.50
2019-04-01T21:31:51.293Z,19.67
2019-04-01T21:33:55.024Z,18.33
2019-04-01T21:35:58.839Z,14.17
2019-04-01T21:38:03.164Z,15.23
2019-04-01T21:40:08.195Z,15.27
2019-04-01T21:42:11.940Z,15.27
2019-04-01T21:44:15.686Z,18.10
2019-04-01T21:46:19.554Z,12.00
2019-04-01T21:48:23.302Z,16.33
2019-04-01T21:50:29.549Z,16.80
2019-04-01T21:52:33.168Z,12.00
2019-04-01T21:54:37.692Z,16.17
2019-04-01T21:56:41.430Z,21.90
2019-04-01T21:58:45.162Z,15.30
2019-04-01T22:00:52.013Z,14.50
2019-04-01T22:02:55.750Z,11.97
2019-04-01T22:04:59.481Z,15.63
2019-04-01T22:07:03.294Z,22.97
2019-04-01T22:09:09.754Z,34.97
2019-04-01T22:11:13.490Z,36.53
2019-04-01T22:13:17.235Z,15.77
2019-04-01T22:15:22.207Z,17.20
2019-04-01T22:17:26.134Z,19.17
2019-04-01T22:19:29.889Z,18.80
2019-04-01T22:21:34.702Z,12.77
2019-04-01T22:23:38.429Z,8.53
2019-04-01T22:25:42.160Z,15.27
2019-04-01T22:27:45.894Z,12.67
2019-04-01T22:29:49.693Z,9.97
2019-04-01T22:31:53.408Z,18.10
2019-04-01T22:33:57.144Z,13.67
2019-04-01T22:36:00.933Z,14.50
2019-04-01T22:38:06.211Z,12.90
2019-04-01T22:40:10.399Z,14.40
2019-04-01T22:42:14.172Z,15.97
2019-04-01T22:44:17.911Z,10.57
2019-04-01T22:46:21.619Z,9.27
2019-04-01T22:48:25.350Z,11.83
2019-04-01T22:50:29.158Z,11.07
2019-04-01T22:52:32.865Z,13.27
2019-04-01T22:54:36.589Z,11.70
2019-04-01T22:56:40.318Z,12.03
2019-04-01T22:58:44.024Z,9.97
2019-04-01T23:00:47.771Z,14.40
2019-04-01T23:02:51.502Z,11.70
2019-04-01T23:04:55.221Z,11.03
2019-04-01T23:06:58.937Z,11.90
2019-04-01T23:09:03.054Z,11.37
2019-04-01T23:11:06.763Z,13.73
2019-04-01T23:13:10.505Z,12.30
2019-04-01T23:15:15.317Z,14.27
2019-04-01T23:17:19.515Z,11.47
2019-04-01T23:19:23.329Z,15.23
2019-04-01T23:21:27.056Z,13.27
2019-04-01T23:23:30.783Z,12.30
2019-04-01T23:25:34.522Z,12.73
2019-04-01T23:27:38.258Z,15.00
2019-04-01T23:29:41.986Z,13.70
2019-04-01T23:31:46.253Z,17.53
2019-04-01T23:33:50.857Z,11.20
2019-04-01T23:35:54.592Z,15.17
2019-04-01T23:37:58.313Z,12.13
2019-04-01T23:40:02.383Z,12.27
2019-04-01T23:42:07.049Z,13.13
2019-04-01T23:44:10.767Z,12.33
2019-04-01T23:46:14.506Z,13.77
2019-04-01T23:48:18.242Z,11.23
2019-04-01T23:50:21.976Z,10.77
2019-04-01T23:52:25.713Z,12.20
2019-04-01T23:54:31.031Z,18.10
2019-04-01T23:56:34.876Z,12.97
2019-04-01T23:58:38.605Z,10.50
